TimeEST,TemperatureF,Dew PointF,Humidity,Sea Level PressureIn,VisibilityMPH,Wind Direction,Wind SpeedMPH,Gust SpeedMPH,PrecipitationIn,Events,Conditions,WindDirDegrees,DateUTC
12:53 AM,34.0,24.1,67,30.14,10.0,North,5.8,-,N/A,,Clear,350,2013-03-07 05:53:00
1:53 AM,33.1,24.1,70,30.14,10.0,Calm,Calm,-,N/A,,Clear,0,2013-03-07 06:53:00
2:53 AM,33.1,24.1,70,30.14,10.0,NNE,6.9,-,N/A,,Clear,20,2013-03-07 07:53:00
3:53 AM,33.1,24.1,70,30.16,10.0,Calm,Calm,-,N/A,,Clear,0,2013-03-07 08:53:00
4:53 AM,32.0,24.1,73,30.19,10.0,NNE,3.5,-,N/A,,Clear,30,2013-03-07 09:53:00
5:53 AM,32.0,24.1,73,30.21,10.0,Calm,Calm,-,N/A,,Clear,0,2013-03-07 10:53:00
6:53 AM,28.9,24.1,82,30.23,10.0,Calm,Calm,-,N/A,,Clear,0,2013-03-07 11:53:00
7:53 AM,33.1,26.1,75,30.23,10.0,West,3.5,-,N/A,,Clear,260,2013-03-07 12:53:00
8:53 AM,37.9,26.1,62,30.26,10.0,West,8.1,-,N/A,,Clear,280,2013-03-07 13:53:00
9:53 AM,42.1,25.0,51,30.24,10.0,Variable,4.6,-,N/A,,Clear,0,2013-03-07 14:53:00
10:53 AM,46.0,25.0,44,30.23,10.0,WSW,5.8,-,N/A,,Clear,250,2013-03-07 15:53:00
11:53 AM,50.0,25.0,38,30.22,10.0,Calm,Calm,-,N/A,,Clear,0,2013-03-07 16:53:00
12:53 PM,53.1,25.0,34,30.19,10.0,SSW,8.1,-,N/A,,Clear,210,2013-03-07 17:53:00
1:53 PM,55.9,24.1,29,30.16,10.0,NW,6.9,-,N/A,,Clear,310,2013-03-07 18:53:00
2:53 PM,57.0,24.1,28,30.15,10.0,Variable,5.8,-,N/A,,Clear,0,2013-03-07 19:53:00
3:53 PM,57.0,25.0,29,30.15,10.0,WSW,3.5,-,N/A,,Clear,250,2013-03-07 20:53:00
4:53 PM,57.0,25.0,29,30.14,10.0,NNW,4.6,-,N/A,,Clear,330,2013-03-07 21:53:00
5:53 PM,55.9,25.0,30,30.17,10.0,Calm,Calm,-,N/A,,Clear,0,2013-03-07 22:53:00
6:53 PM,52.0,26.1,37,30.19,10.0,NE,5.8,-,N/A,,Clear,40,2013-03-07 23:53:00
7:53 PM,46.9,25.0,42,30.21,10.0,North,9.2,-,N/A,,Clear,360,2013-03-08 00:53:00
8:53 PM,44.1,25.0,47,30.22,10.0,NNE,8.1,-,N/A,,Clear,30,2013-03-08 01:53:00
9:53 PM,42.1,24.1,49,30.24,10.0,ENE,4.6,-,N/A,,Clear,60,2013-03-08 02:53:00
10:53 PM,39.9,24.1,53,30.25,10.0,ENE,6.9,-,N/A,,Clear,60,2013-03-08 03:53:00
11:53 PM,37.9,24.1,57,30.24,10.0,ENE,5.8,-,N/A,,Clear,70,2013-03-08 04:53:00